Time;durP1;ratioP1;P1;durP2;ratioP2;P2;SDS_P1;SDS_P2;PMS_P1;PMS_P2;Temp;Humidity;BMP_temperature;BMP_pressure;BME280_temperature;BME280_humidity;BME280_pressure;Samples;Min_cycle;Max_cycle;Signal;HPM_P1;HPM_P2
2022/12/23 00:01:05;;;;;;;4.97;3.72;;;;;;;16.66;52.39;96896.09;5012278;28;20037;-32
2022/12/23 00:03:32;;;;;;;4.75;3.60;;;;;;;16.65;52.58;96889.88;5012002;28;20033;-32
2022/12/23 00:05:58;;;;;;;4.68;3.42;;;;;;;16.67;52.64;96872.97;4994576;28;20470;-32
2022/12/23 00:08:24;;;;;;;5.65;3.50;;;;;;;16.68;52.61;96867.06;5009846;28;20397;-32
2022/12/23 00:10:52;;;;;;;5.00;3.70;;;;;;;16.61;52.70;96861.06;5012026;28;20037;-32
2022/12/23 00:16:05;;;;;;;5.00;3.70;;;;;;;16.59;52.79;96863.50;4999214;28;20067;-32
2022/12/23 00:18:31;;;;;;;3.97;3.22;;;;;;;16.63;52.61;96859.44;5012194;28;20029;-32
2022/12/23 00:21:02;;;;;;;5.40;3.65;;;;;;;16.61;52.59;96856.34;5014133;28;20069;-32
2022/12/23 00:23:28;;;;;;;4.40;3.63;;;;;;;16.64;52.52;96860.19;5013530;28;20419;-32
2022/12/23 00:25:53;;;;;;;5.40;3.72;;;;;;;16.54;52.51;96853.94;5014100;28;20025;-32
2022/12/23 00:28:22;;;;;;;4.25;3.35;;;;;;;16.56;52.77;96848.00;5013615;28;20494;-33
2022/12/23 00:30:52;;;;;;;3.60;2.72;;;;;;;16.48;52.88;96855.72;4996086;28;20084;-32
2022/12/23 00:33:23;;;;;;;3.53;3.20;;;;;;;16.61;52.58;96856.34;5013435;28;20049;-32
2022/12/23 00:35:49;;;;;;;4.55;3.42;;;;;;;16.60;52.55;96857.56;5013930;28;20084;-32
2022/12/23 00:38:16;;;;;;;4.72;3.30;;;;;;;16.60;52.43;96859.53;5013733;28;20413;-32
2022/12/23 00:43:25;;;;;;;3.95;2.95;;;;;;;16.55;52.69;96857.44;5013477;28;20111;-32
2022/12/23 00:45:50;;;;;;;5.20;3.20;;;;;;;16.55;52.61;96858.19;5013738;28;20458;-33
2022/12/23 00:51:00;;;;;;;4.85;3.40;;;;;;;16.46;52.84;96845.22;5014052;28;20129;-32
2022/12/23 00:53:26;;;;;;;5.68;2.85;;;;;;;16.51;52.79;96850.13;5015433;28;20080;-32
2022/12/23 00:55:51;;;;;;;4.18;3.28;;;;;;;16.56;52.59;96851.50;5013471;28;20084;-32
2022/12/23 00:58:19;;;;;;;4.53;3.15;;;;;;;16.45;52.83;96856.63;5013414;28;20026;-32
2022/12/23 01:06:14;;;;;;;3.83;3.28;;;;;;;16.54;53.01;96851.19;5013755;28;20041;-32
2022/12/23 01:08:40;;;;;;;3.60;3.20;;;;;;;16.57;52.78;96858.47;5013375;28;20026;-32
2022/12/23 01:11:08;;;;;;;4.72;3.45;;;;;;;16.56;53.10;96865.19;5013383;28;20018;-32
2022/12/23 01:13:34;;;;;;;5.38;3.70;;;;;;;16.55;53.16;96871.88;5013102;28;20485;-32
2022/12/23 01:16:08;;;;;;;5.45;4.07;;;;;;;16.57;52.98;96880.38;4995733;28;20364;-32
2022/12/23 01:18:35;;;;;;;4.72;3.75;;;;;;;16.58;53.02;96876.44;5013167;28;20029;-32
2022/12/23 01:21:06;;;;;;;4.35;3.83;;;;;;;16.54;53.21;96875.84;5013030;28;20053;-32
2022/12/23 01:23:32;;;;;;;4.80;3.72;;;;;;;16.57;53.28;96874.16;5013280;28;20026;-32
2022/12/23 01:25:59;;;;;;;4.68;3.75;;;;;;;16.51;53.28;96860.31;5013285;28;20022;-32
2022/12/23 01:28:26;;;;;;;4.85;3.85;;;;;;;16.49;53.30;96865.47;5013105;28;20030;-32
2022/12/23 01:30:51;;;;;;;5.55;4.28;;;;;;;16.47;53.45;96876.88;5013511;28;20490;-32
2022/12/23 01:33:17;;;;;;;5.22;3.97;;;;;;;16.46;53.68;96872.59;5010596;28;20046;-32
2022/12/23 01:35:42;;;;;;;5.88;4.22;;;;;;;16.48;53.55;96880.38;5004234;28;20033;-32
2022/12/23 01:38:08;;;;;;;4.90;3.67;;;;;;;16.48;53.54;96869.41;5022897;28;20033;-32
2022/12/23 01:40:38;;;;;;;5.22;4.35;;;;;;;16.56;53.39;96850.75;5016659;28;20025;-32
2022/12/23 01:43:04;;;;;;;6.32;4.28;;;;;;;16.55;53.51;96851.94;5016724;28;20092;-32
2022/12/23 01:45:32;;;;;;;5.57;3.72;;;;;;;16.53;53.53;96846.94;5017000;28;20446;-32
2022/12/23 01:48:04;;;;;;;4.90;3.50;;;;;;;16.50;53.62;96845.84;5016675;28;20406;-32
2022/12/23 01:50:54;;;;;;;5.15;3.72;;;;;;;16.48;53.84;96848.28;5016616;28;20026;-32
2022/12/23 01:53:27;;;;;;;4.78;3.67;;;;;;;16.48;53.56;96836.56;5016573;28;20057;-32
2022/12/23 01:56:08;;;;;;;4.88;3.60;;;;;;;16.49;53.64;96838.84;4999191;28;20359;-32
2022/12/23 01:58:38;;;;;;;5.15;3.65;;;;;;;16.50;53.71;96845.09;4999335;28;20025;-32
2022/12/23 02:03:52;;;;;;;4.15;3.45;;;;;;;16.55;53.75;96838.25;5016627;28;20095;-32
2022/12/23 02:09:28;;;;;;;3.50;3.15;;;;;;;16.49;53.90;96846.31;4960548;28;20050;-32
2022/12/23 02:12:20;;;;;;;4.25;3.40;;;;;;;16.48;53.84;96842.03;5010042;28;20040;-32
2022/12/23 02:18:26;;;;;;;3.92;3.22;;;;;;;16.48;54.03;96863.94;5004719;28;20084;-32
2022/12/23 02:21:19;;;;;;;5.03;3.20;;;;;;;16.55;53.59;96871.88;4970286;28;20052;-32
2022/12/23 02:23:50;;;;;;;5.13;3.13;;;;;;;16.53;53.99;96871.56;5016197;28;20386;-32
2022/12/23 02:26:48;;;;;;;3.80;3.20;;;;;;;16.51;54.03;96846.63;5016095;28;20030;-32
2022/12/23 02:29:32;;;;;;;4.68;3.78;;;;;;;16.50;53.84;96843.13;5015888;28;20026;-32
2022/12/23 02:32:40;;;;;;;4.93;3.42;;;;;;;16.49;53.87;96855.28;4993243;28;20455;-32
2022/12/23 02:35:13;;;;;;;4.28;3.08;;;;;;;16.49;53.97;96865.47;4940825;29;20496;-32
2022/12/23 02:37:54;;;;;;;3.88;3.15;;;;;;;16.48;53.99;96870.19;4955478;28;20043;-32
2022/12/23 02:40:25;;;;;;;5.30;3.40;;;;;;;16.45;54.23;96881.28;4955787;28;20531;-32
2022/12/23 02:43:03;;;;;;;3.67;2.80;;;;;;;16.40;54.26;96871.69;4955605;28;20038;-32
2022/12/23 02:45:38;;;;;;;4.00;2.92;;;;;;;16.43;54.20;96867.31;4955565;28;20039;-32
2022/12/23 02:48:11;;;;;;;4.95;3.88;;;;;;;16.43;54.16;96862.59;4955384;28;20023;-32
2022/12/23 02:50:40;;;;;;;5.15;3.53;;;;;;;16.44;54.24;96860.63;4957911;28;20027;-32
2022/12/23 02:53:23;;;;;;;4.43;3.30;;;;;;;16.47;54.22;96846.75;4955236;28;20173;-32
2022/12/23 02:55:51;;;;;;;5.40;3.53;;;;;;;16.46;54.10;96860.91;4955368;28;20027;-32
2022/12/23 02:58:21;;;;;;;5.47;2.97;;;;;;;16.42;54.26;96861.06;4955126;28;20043;-32
2022/12/23 03:00:47;;;;;;;3.65;2.95;;;;;;;16.37;54.42;96858.16;4954989;28;20027;-33
2022/12/23 03:03:15;;;;;;;5.75;3.80;;;;;;;16.39;54.33;96861.19;4955008;28;20038;-32
2022/12/23 03:05:45;;;;;;;6.38;3.92;;;;;;;16.43;54.23;96872.78;4976006;28;20100;-32
2022/12/23 03:08:19;;;;;;;5.63;3.80;;;;;;;16.40;54.46;96865.47;5015173;28;20049;-32
2022/12/23 03:11:06;;;;;;;4.78;3.47;;;;;;;16.41;54.31;96875.19;5015090;28;20467;-32
2022/12/23 03:13:56;;;;;;;4.38;3.28;;;;;;;16.44;54.15;96880.50;5015133;28;20466;-32
2022/12/23 03:16:37;;;;;;;4.80;3.20;;;;;;;16.46;54.24;96874.59;5005385;28;20036;-32
2022/12/23 03:19:29;;;;;;;4.03;3.33;;;;;;;16.37;54.51;96858.16;5015169;28;20040;-32
2022/12/23 03:21:58;;;;;;;4.65;3.35;;;;;;;16.35;54.66;96849.63;5015013;28;20111;-32
2022/12/23 03:24:24;;;;;;;6.03;4.07;;;;;;;16.37;54.46;96849.94;5015190;28;20029;-32
2022/12/23 03:26:56;;;;;;;4.72;3.63;;;;;;;16.41;54.53;96842.34;5014787;28;20045;-32
2022/12/23 03:29:39;;;;;;;5.60;3.67;;;;;;;16.42;54.58;96824.72;5015145;28;20037;-32
2022/12/23 03:32:06;;;;;;;4.65;3.70;;;;;;;16.40;54.52;96819.69;4996789;28;20065;-32
2022/12/23 03:34:36;;;;;;;5.25;4.15;;;;;;;16.39;54.69;96815.44;4997285;28;20454;-32
2022/12/23 03:37:06;;;;;;;5.75;4.22;;;;;;;16.41;54.46;96809.50;5002014;28;20033;-32
2022/12/23 03:39:42;;;;;;;7.25;4.18;;;;;;;16.40;54.52;96803.28;5014509;28;20030;-32
2022/12/23 03:42:26;;;;;;;6.88;4.63;;;;;;;16.38;54.50;96799.47;5014593;28;20029;-32
2022/12/23 03:44:52;;;;;;;5.60;4.25;;;;;;;16.42;54.67;96805.56;5014336;28;20022;-32
2022/12/23 03:47:29;;;;;;;7.60;4.88;;;;;;;16.39;54.31;96801.75;5014560;28;20022;-32
2022/12/23 03:49:59;;;;;;;7.90;4.55;;;;;;;16.33;54.88;96791.84;5014242;28;20049;-31
2022/12/23 03:52:50;;;;;;;10.52;4.32;;;;;;;16.36;54.78;96801.88;5014326;28;20102;-31
2022/12/23 03:55:26;;;;;;;5.00;4.05;;;;;;;16.35;54.68;96794.88;5014184;28;20056;-31
2022/12/23 03:58:08;;;;;;;6.00;4.72;;;;;;;16.41;54.65;96796.56;5013673;28;20140;-31
2022/12/23 04:00:40;;;;;;;8.32;4.57;;;;;;;16.38;54.82;96791.25;5014006;28;20512;-31
2022/12/23 04:03:31;;;;;;;7.55;4.57;;;;;;;16.37;54.96;96782.28;5014362;28;20398;-31
2022/12/23 04:06:00;;;;;;;6.20;4.80;;;;;;;16.34;54.88;96780.44;5014216;28;20022;-31
2022/12/23 04:08:33;;;;;;;6.68;5.30;;;;;;;16.34;54.99;96782.41;5013850;28;20479;-31
2022/12/23 04:10:59;;;;;;;;;;;;;;;16.29;55.26;96775.59;5014176;28;20064;-31
2022/12/23 04:13:26;;;;;;;7.40;4.50;;;;;;;16.31;55.09;96781.38;5014521;28;19909;-31
2022/12/23 04:15:52;;;;;;;5.72;4.95;;;;;;;16.35;54.87;96783.94;5014029;28;20075;-31
2022/12/23 04:18:18;;;;;;;7.53;4.90;;;;;;;16.35;54.79;96781.97;5014092;28;20029;-31
2022/12/23 04:20:43;;;;;;;6.13;4.97;;;;;;;16.35;55.11;96778.47;5013793;28;20026;-31
2022/12/23 04:23:09;;;;;;;7.95;5.43;;;;;;;16.38;54.95;96777.56;5013909;28;20079;-31
2022/12/23 04:25:35;;;;;;;7.18;5.43;;;;;;;16.25;55.21;96785.91;5014131;28;20474;-31
2022/12/23 04:28:00;;;;;;;8.23;5.88;;;;;;;16.31;55.23;96789.59;5013719;28;20029;-31
2022/12/23 04:30:26;;;;;;;8.27;5.88;;;;;;;16.31;55.13;96786.84;5013607;28;20424;-31
2022/12/23 04:32:51;;;;;;;8.18;5.82;;;;;;;16.28;55.29;96790.50;5014034;28;20050;-31
2022/12/23 04:35:17;;;;;;;7.65;5.78;;;;;;;16.22;55.33;96807.94;5013491;28;20018;-31
2022/12/23 04:37:42;;;;;;;8.90;6.10;;;;;;;16.27;55.22;96801.88;5013978;28;20470;-31
2022/12/23 04:40:08;;;;;;;8.18;6.25;;;;;;;16.25;55.34;96796.09;5013491;28;20096;-31
2022/12/23 04:42:33;;;;;;;9.23;6.40;;;;;;;16.29;55.35;96796.72;5016155;28;20540;-31
2022/12/23 04:44:59;;;;;;;9.85;7.43;;;;;;;16.30;55.17;96787.28;5013737;28;20022;-31
2022/12/23 04:47:24;;;;;;;9.95;7.13;;;;;;;16.29;55.17;96802.19;5013863;28;20076;-31
2022/12/23 04:49:51;;;;;;;10.60;7.32;;;;;;;16.30;55.19;96807.22;5013463;28;20101;-31
2022/12/23 04:52:16;;;;;;;8.57;6.93;;;;;;;16.26;55.21;96808.56;5013695;28;20020;-31
2022/12/23 04:54:41;;;;;;;9.75;7.97;;;;;;;16.31;55.29;96805.25;5013414;28;20018;-31
2022/12/23 04:57:07;;;;;;;9.70;7.28;;;;;;;16.29;55.46;96799.47;5013488;28;20018;-31
2022/12/23 04:59:33;;;;;;;9.30;7.35;;;;;;;16.25;55.50;96793.38;5013538;28;20048;-31
2022/12/23 05:01:58;;;;;;;11.27;7.88;;;;;;;16.33;55.13;96794.56;5013697;28;20030;-31
2022/12/23 05:04:24;;;;;;;10.95;7.68;;;;;;;16.23;55.80;96802.03;4995715;28;20060;-31
2022/12/23 05:06:49;;;;;;;12.30;7.68;;;;;;;16.30;55.44;96803.72;5013535;28;20110;-31
2022/12/23 05:09:14;;;;;;;10.32;7.55;;;;;;;16.30;55.39;96804.47;5013512;28;20022;-31
2022/12/23 05:11:40;;;;;;;11.45;7.78;;;;;;;16.28;55.30;96806.16;5016541;28;20029;-31
2022/12/23 05:14:08;;;;;;;10.52;8.15;;;;;;;16.22;55.68;96811.44;5017568;28;20025;-31
2022/12/23 05:16:34;;;;;;;9.95;6.97;;;;;;;16.25;55.67;96816.03;5017412;28;20113;-31
2022/12/23 05:18:59;;;;;;;11.20;7.45;;;;;;;16.26;55.46;96814.81;5017474;28;20098;-31
2022/12/23 05:21:25;;;;;;;10.20;7.63;;;;;;;16.20;55.56;96816.59;4999831;28;20030;-31
2022/12/23 05:23:50;;;;;;;9.25;6.97;;;;;;;16.24;55.70;96808.25;5012105;28;20034;-31
2022/12/23 05:26:16;;;;;;;9.00;6.55;;;;;;;16.24;55.36;96805.53;5009085;28;20026;-31
2022/12/23 05:28:44;;;;;;;9.98;7.15;;;;;;;16.23;55.55;96799.28;5012735;28;20026;-31
2022/12/23 05:31:10;;;;;;;9.35;7.25;;;;;;;16.17;55.83;96804.63;5008829;28;20029;-31
2022/12/23 05:33:36;;;;;;;8.63;6.68;;;;;;;16.12;55.93;96809.91;5016922;28;20069;-31
2022/12/23 05:36:01;;;;;;;8.80;6.93;;;;;;;16.13;55.88;96804.00;4988026;28;20029;-31
2022/12/23 05:38:27;;;;;;;8.85;6.78;;;;;;;16.13;55.79;96801.25;5015308;28;20057;-31
2022/12/23 05:40:53;;;;;;;9.07;6.63;;;;;;;16.19;55.74;96806.16;5017182;28;20030;-31
2022/12/23 05:43:18;;;;;;;8.43;6.55;;;;;;;16.17;55.80;96801.88;5016826;28;20022;-31
2022/12/23 05:45:44;;;;;;;8.85;6.53;;;;;;;16.19;55.93;96809.63;5016884;28;20545;-31
2022/12/23 05:48:10;;;;;;;9.32;6.53;;;;;;;16.18;55.78;96819.06;5016875;28;20025;-31
2022/12/23 05:50:37;;;;;;;10.75;6.55;;;;;;;16.09;56.22;96821.75;4999088;28;20026;-31
2022/12/23 05:53:02;;;;;;;7.72;6.13;;;;;;;16.12;55.89;96824.34;5016795;28;20036;-31
2022/12/23 05:55:27;;;;;;;7.35;5.95;;;;;;;16.10;55.94;96821.31;4986397;28;20018;-31
2022/12/23 05:57:53;;;;;;;8.57;6.25;;;;;;;16.14;55.90;96824.66;5016087;28;20109;-31
2022/12/23 06:00:19;;;;;;;8.27;5.88;;;;;;;16.15;55.86;96826.19;5016421;28;20036;-31
2022/12/23 06:02:45;;;;;;;7.90;5.55;;;;;;;16.14;55.92;96824.66;5003619;28;20033;-31
2022/12/23 06:05:13;;;;;;;7.18;5.65;;;;;;;16.19;55.74;96811.63;4998803;28;20034;-31
2022/12/23 06:07:39;;;;;;;8.95;6.05;;;;;;;16.21;55.72;96811.91;5016469;28;20552;-31
2022/12/23 06:10:06;;;;;;;7.82;5.78;;;;;;;16.13;55.92;96806.72;5016375;28;20080;-31
2022/12/23 06:12:31;;;;;;;8.10;6.00;;;;;;;16.06;56.28;96806.28;5016381;28;20091;-31
2022/12/23 06:14:57;;;;;;;8.00;5.35;;;;;;;16.11;56.17;96819.34;5016130;28;20049;-31
2022/12/23 06:17:22;;;;;;;7.22;5.18;;;;;;;16.07;56.24;96826.94;5016107;28;20030;-31
2022/12/23 06:19:48;;;;;;;7.80;6.10;;;;;;;16.16;55.97;96833.19;5015875;28;20026;-31
2022/12/23 06:22:14;;;;;;;6.72;5.35;;;;;;;16.09;56.19;96830.72;5015405;28;20047;-31
2022/12/23 06:24:40;;;;;;;7.88;6.35;;;;;;;16.08;56.23;96840.16;5016221;28;20057;-31
2022/12/23 06:27:06;;;;;;;8.77;6.10;;;;;;;16.12;56.18;96832.56;5016078;28;20426;-31
2022/12/23 06:29:31;;;;;;;8.07;5.55;;;;;;;16.09;56.10;96827.22;5005290;28;20077;-31
2022/12/23 06:31:57;;;;;;;5.97;5.22;;;;;;;16.06;56.53;96823.44;5013529;28;20050;-31
2022/12/23 06:34:22;;;;;;;8.35;6.03;;;;;;;16.10;56.11;96817.81;5015850;28;20030;-32
2022/12/23 06:36:48;;;;;;;8.02;5.78;;;;;;;16.06;56.31;96834.38;5015736;28;20499;-32
2022/12/23 06:39:13;;;;;;;7.90;5.68;;;;;;;16.12;56.19;96840.00;5015770;28;20025;-33
2022/12/23 06:41:39;;;;;;;7.90;5.35;;;;;;;16.09;56.28;96847.16;4998160;28;20026;-32
2022/12/23 06:44:04;;;;;;;9.80;6.28;;;;;;;16.04;56.52;96842.28;5015775;28;20491;-32
2022/12/23 06:46:30;;;;;;;9.02;6.40;;;;;;;16.05;56.35;96843.81;5015593;28;20100;-32
2022/12/23 06:48:55;;;;;;;8.73;6.38;;;;;;;16.11;56.34;96847.47;5018560;28;20049;-32
2022/12/23 06:51:23;;;;;;;11.43;7.72;;;;;;;16.03;56.43;96856.41;5015501;28;20473;-32
2022/12/23 06:53:48;;;;;;;10.15;7.00;;;;;;;16.04;56.61;96852.47;5015761;28;20026;-32
2022/12/23 06:56:14;;;;;;;10.48;7.32;;;;;;;16.03;56.54;96854.44;5015285;28;20087;-32
2022/12/23 06:58:39;;;;;;;12.07;7.57;;;;;;;16.00;56.78;96855.34;4993835;28;20201;-32
2022/12/23 07:01:05;;;;;;;12.57;8.35;;;;;;;16.07;56.75;96854.31;4988057;28;20034;-32
2022/12/23 07:03:30;;;;;;;10.73;7.80;;;;;;;16.11;56.30;96852.16;4988330;28;20075;-32
2022/12/23 07:05:59;;;;;;;12.18;8.57;;;;;;;16.07;56.57;96857.78;4987972;28;20026;-32
2022/12/23 07:08:24;;;;;;;12.00;8.50;;;;;;;16.03;56.77;96856.41;4988455;28;20045;-32
2022/12/23 07:10:56;;;;;;;10.70;7.90;;;;;;;16.04;56.73;96853.22;4987691;28;20025;-32
2022/12/23 07:13:22;;;;;;;11.15;8.20;;;;;;;16.06;56.55;96845.34;4988360;28;20075;-32
2022/12/23 07:15:47;;;;;;;10.90;8.02;;;;;;;16.08;56.50;96855.81;4988152;28;20440;-32
2022/12/23 07:18:12;;;;;;;10.15;7.50;;;;;;;16.02;56.79;96854.88;5011781;28;20066;-32
2022/12/23 07:20:38;;;;;;;10.75;7.63;;;;;;;16.10;56.60;96864.31;5001837;28;20045;-32
2022/12/23 07:23:03;;;;;;;10.95;7.45;;;;;;;16.11;56.40;96858.41;5015011;28;20053;-32
2022/12/23 07:25:29;;;;;;;11.30;7.85;;;;;;;16.06;56.61;96856.28;5015219;28;20037;-32
2022/12/23 07:27:55;;;;;;;12.73;8.75;;;;;;;15.98;56.87;96860.50;4996730;28;20026;-32
2022/12/23 07:30:21;;;;;;;15.88;9.05;;;;;;;16.03;56.86;96862.66;5014073;28;20080;-32
2022/12/23 07:32:48;;;;;;;11.65;8.30;;;;;;;15.97;56.99;96864.44;5013138;28;20073;-32
2022/12/23 07:35:14;;;;;;;13.48;8.45;;;;;;;16.01;56.85;96859.59;5013934;28;20030;-32
2022/12/23 07:37:39;;;;;;;12.45;7.57;;;;;;;16.09;56.65;96866.31;5011212;28;20390;-32
2022/12/23 07:40:06;;;;;;;11.60;7.55;;;;;;;16.08;56.67;96866.75;5011582;28;20025;-32
2022/12/23 07:42:32;;;;;;;10.63;7.65;;;;;;;16.03;56.72;96864.63;5011629;28;20068;-32
2022/12/23 07:44:57;;;;;;;10.13;7.28;;;;;;;16.07;56.55;96865.97;5014330;28;20029;-32
2022/12/23 07:47:22;;;;;;;12.52;8.05;;;;;;;16.02;57.04;96865.84;5014750;28;20450;-31
2022/12/23 07:49:48;;;;;;;10.13;7.53;;;;;;;16.08;56.68;96858.53;5014323;28;20022;-31
2022/12/23 07:52:14;;;;;;;10.43;7.85;;;;;;;16.07;56.79;96865.25;5014167;28;20061;-31
2022/12/23 07:54:39;;;;;;;11.50;7.50;;;;;;;16.00;56.90;96865.50;5014461;28;20050;-31
2022/12/23 07:57:05;;;;;;;9.90;6.65;;;;;;;16.00;57.12;96866.28;5014193;28;20108;-31
2022/12/23 07:59:30;;;;;;;10.20;6.55;;;;;;;16.03;56.83;96865.38;5013888;28;20036;-31
2022/12/23 08:01:56;;;;;;;9.50;6.72;;;;;;;15.99;57.07;96862.00;5013242;28;20470;-31
2022/12/23 08:04:21;;;;;;;10.32;6.28;;;;;;;16.06;56.72;96861.75;5004877;28;20087;-31
2022/12/23 08:06:48;;;;;;;8.90;6.32;;;;;;;16.07;56.80;96852.31;5013402;28;20148;-31
2022/12/23 08:09:13;;;;;;;8.63;6.32;;;;;;;16.00;56.90;96857.31;5011437;28;20466;-31
2022/12/23 08:11:39;;;;;;;9.68;6.00;;;;;;;16.01;57.01;96856.09;5012188;28;20045;-31
2022/12/23 08:14:05;;;;;;;8.20;4.78;;;;;;;16.01;56.83;96856.09;5011604;28;20018;-31
2022/12/23 08:16:30;;;;;;;8.85;5.72;;;;;;;15.95;56.93;96852.44;4994323;28;20038;-31
2022/12/23 08:18:55;;;;;;;11.82;8.50;;;;;;;16.00;56.83;96857.31;5011611;28;20030;-31
2022/12/23 08:21:21;;;;;;;11.50;8.15;;;;;;;16.02;56.92;96866.59;5011299;28;20462;-31
2022/12/23 08:23:47;;;;;;;11.75;8.25;;;;;;;16.01;57.09;96858.84;5007318;28;20030;-31
2022/12/23 08:26:19;;;;;;;12.35;7.95;;;;;;;16.02;56.77;96863.84;5011759;28;20030;-31
2022/12/23 08:28:45;;;;;;;13.80;8.10;;;;;;;15.95;57.16;96874.31;5011666;28;20025;-31
2022/12/23 08:31:28;;;;;;;12.82;9.15;;;;;;;15.97;56.99;96869.91;5011211;28;20167;-31
2022/12/23 08:33:55;;;;;;;;;;;;;;;16.02;57.01;96872.06;5009158;28;20021;-31
2022/12/23 08:36:23;;;;;;;11.45;7.70;;;;;;;16.01;57.22;96880.72;5011685;28;20757;-31
2022/12/23 08:38:51;;;;;;;12.43;8.10;;;;;;;16.02;57.11;96869.31;5011829;28;20029;-31
2022/12/23 08:41:20;;;;;;;12.73;8.38;;;;;;;15.99;57.05;96872.19;4993896;28;20372;-31
2022/12/23 08:43:45;;;;;;;10.38;7.60;;;;;;;16.06;56.91;96878.16;5011379;28;20029;-31
2022/12/23 08:46:11;;;;;;;9.68;7.35;;;;;;;16.00;57.02;96874.47;5011598;28;20113;-31
2022/12/23 08:48:37;;;;;;;8.95;6.97;;;;;;;15.92;57.47;96878.72;5011341;28;20034;-31
2022/12/23 08:51:08;;;;;;;11.13;7.68;;;;;;;15.98;57.27;96870.66;5011511;28;20021;-31
2022/12/23 08:53:34;;;;;;;10.18;7.38;;;;;;;15.99;57.21;96861.25;5009956;28;20029;-31
2022/12/23 08:56:06;;;;;;;8.85;6.30;;;;;;;16.08;57.05;96867.50;5011167;28;20041;-31
2022/12/23 08:58:35;;;;;;;9.15;6.45;;;;;;;15.93;57.58;96857.59;5014004;28;20294;-31
2022/12/23 09:01:10;;;;;;;10.07;6.88;;;;;;;15.95;57.64;96872.31;5010916;28;20029;-31
2022/12/23 09:03:36;;;;;;;15.23;9.07;;;;;;;15.19;61.19;96878.31;5010740;28;20021;-32
2022/12/23 09:06:06;;;;;;;13.13;8.60;;;;;;;15.62;59.50;96895.91;5011025;28;20105;-31
2022/12/23 09:08:32;;;;;;;10.80;8.55;;;;;;;15.87;58.72;96901.19;5010765;28;20113;-31
2022/12/23 09:10:57;;;;;;;11.38;8.55;;;;;;;15.94;58.50;96913.84;5013981;28;20109;-31
2022/12/23 09:13:23;;;;;;;12.10;7.95;;;;;;;16.02;58.02;96910.38;4993337;28;20072;-31
2022/12/23 09:15:48;;;;;;;12.07;7.53;;;;;;;16.05;57.60;96909.47;5011003;28;20033;-32
2022/12/23 09:18:14;;;;;;;9.60;7.53;;;;;;;16.10;57.64;96919.81;5010624;28;20183;-31
2022/12/23 09:20:39;;;;;;;12.70;8.40;;;;;;;16.17;57.42;96919.53;5010543;28;20026;-31
2022/12/23 09:23:05;;;;;;;13.25;8.25;;;;;;;16.19;57.14;96918.34;5010769;28;20109;-31
2022/12/23 09:25:31;;;;;;;13.98;8.45;;;;;;;16.17;57.15;96930.50;5010969;28;20029;-31
2022/12/23 09:27:57;;;;;;;11.93;7.88;;;;;;;16.13;57.09;96940.81;5010971;28;20038;-31
2022/12/23 09:30:23;;;;;;;12.40;7.80;;;;;;;16.13;57.30;96935.34;5011023;28;20159;-31
2022/12/23 09:32:49;;;;;;;13.35;7.30;;;;;;;16.15;57.19;96935.66;5010408;28;20046;-31
2022/12/23 09:35:14;;;;;;;11.20;7.35;;;;;;;16.14;57.19;96945.06;4993179;28;20030;-31
2022/12/23 09:37:40;;;;;;;11.23;7.72;;;;;;;16.11;57.22;96940.50;5010762;28;20022;-31
2022/12/23 09:40:06;;;;;;;9.98;7.10;;;;;;;16.14;57.31;96934.13;5010683;28;20026;-32
2022/12/23 09:43:05;;;;;;;9.30;7.07;;;;;;;16.14;57.23;96938.84;5010742;28;20087;-32
2022/12/23 09:45:51;;;;;;;10.27;6.40;;;;;;;16.12;57.07;96930.31;5010315;28;20036;-31
2022/12/23 09:48:21;;;;;;;12.05;6.82;;;;;;;16.15;57.26;96932.16;5010558;28;20061;-31
2022/12/23 09:50:48;;;;;;;10.52;6.10;;;;;;;16.14;57.05;96920.44;5010834;28;20022;-31
2022/12/23 09:53:30;;;;;;;9.23;6.43;;;;;;;16.17;57.03;96921.53;5009175;28;20091;-31
2022/12/23 09:56:01;;;;;;;9.07;6.20;;;;;;;16.04;57.70;96909.91;5010740;28;20112;-31
2022/12/23 09:58:48;;;;;;;9.82;6.70;;;;;;;16.10;57.47;96914.34;5014051;28;20117;-31
2022/12/23 10:01:37;;;;;;;10.05;6.10;;;;;;;16.10;57.67;96917.06;5014046;28;20065;-32
2022/12/23 10:04:27;;;;;;;9.40;6.32;;;;;;;16.12;57.58;96920.13;5014213;28;20022;-31
2022/12/23 10:07:14;;;;;;;9.15;6.45;;;;;;;16.08;57.67;96930.44;5014292;28;20025;-31
2022/12/23 10:09:42;;;;;;;9.40;6.72;;;;;;;16.09;57.66;96931.97;4998882;28;20029;-31
2022/12/23 10:12:28;;;;;;;10.30;6.95;;;;;;;16.15;57.42;96927.44;5014059;28;20415;-31
2022/12/23 10:14:58;;;;;;;9.73;7.00;;;;;;;16.09;57.66;96931.19;5006703;28;20049;-31
2022/12/23 10:17:29;;;;;;;8.85;6.68;;;;;;;16.11;57.59;96917.84;5013924;28;20029;-31
2022/12/23 10:20:01;;;;;;;10.15;6.80;;;;;;;16.14;57.62;96917.69;5013703;28;20399;-31
2022/12/23 10:22:41;;;;;;;11.45;6.82;;;;;;;16.14;57.47;96909.50;5012993;28;20026;-31
2022/12/23 10:25:31;;;;;;;10.77;6.80;;;;;;;16.13;57.60;96913.44;5013561;28;20034;-31
2022/12/23 10:27:56;;;;;;;11.57;8.23;;;;;;;16.16;57.60;96909.03;5013905;28;20032;-31
2022/12/23 10:30:26;;;;;;;11.23;6.95;;;;;;;16.14;57.75;96906.00;5014112;28;20030;-31
2022/12/23 10:33:10;;;;;;;11.07;6.57;;;;;;;16.04;57.88;96918.88;5013462;28;20092;-31
2022/12/23 10:35:36;;;;;;;9.25;6.68;;;;;;;16.10;57.90;96908.09;5014201;28;20502;-31
2022/12/23 10:38:38;;;;;;;8.48;6.25;;;;;;;16.14;57.97;96914.97;5013539;28;20100;-31
2022/12/23 10:41:24;;;;;;;9.50;6.07;;;;;;;16.07;58.17;96901.56;5001801;28;20040;-31
2022/12/23 10:44:01;;;;;;;8.20;6.03;;;;;;;16.06;58.23;96894.59;4995869;28;20080;-31
2022/12/23 10:46:59;;;;;;;9.02;6.05;;;;;;;16.16;57.77;96898.09;5013815;28;20018;-31
2022/12/23 10:49:42;;;;;;;8.73;6.13;;;;;;;16.14;57.92;96890.34;5003693;28;20026;-31
2022/12/23 10:52:20;;;;;;;8.30;5.80;;;;;;;16.15;57.91;96880.91;5013636;28;20025;-32
2022/12/23 10:54:47;;;;;;;8.27;6.00;;;;;;;16.17;57.70;96888.69;5011679;28;20118;-31
2022/12/23 10:57:15;;;;;;;8.20;5.53;;;;;;;16.15;57.78;96878.19;5013429;28;20030;-31
2022/12/23 10:59:41;;;;;;;6.75;4.70;;;;;;;16.14;58.00;96876.66;5013346;28;20100;-31
2022/12/23 11:02:12;;;;;;;8.32;5.88;;;;;;;16.09;58.24;96876.47;5013846;28;20481;-31
2022/12/23 11:04:47;;;;;;;7.65;5.35;;;;;;;16.17;57.89;96881.22;5016893;28;20033;-32
2022/12/23 11:07:22;;;;;;;6.25;4.82;;;;;;;16.14;57.89;96871.19;5012787;28;20071;-31
2022/12/23 11:10:06;;;;;;;9.45;4.50;;;;;;;16.08;57.98;96864.78;5012546;28;20030;-31
2022/12/23 11:12:44;;;;;;;8.18;5.22;;;;;;;16.14;57.96;96865.72;5013170;28;20033;-31
2022/12/23 11:15:40;;;;;;;6.50;4.47;;;;;;;16.12;57.97;96868.13;5013154;28;20025;-31
2022/12/23 11:18:16;;;;;;;6.82;4.30;;;;;;;16.00;58.27;96863.53;5004591;28;20050;-31
2022/12/23 11:20:44;;;;;;;7.80;4.53;;;;;;;16.11;57.85;96868.59;5012654;28;20025;-31
2022/12/23 11:23:27;;;;;;;8.18;4.35;;;;;;;16.09;58.05;96871.00;5012858;28;20088;-31
2022/12/23 11:26:02;;;;;;;5.38;3.95;;;;;;;16.19;57.68;96869.09;5002095;28;20568;-31
2022/12/23 11:28:29;;;;;;;6.68;4.25;;;;;;;16.16;57.88;96871.50;5012682;28;20022;-31
2022/12/23 11:30:59;;;;;;;8.23;4.20;;;;;;;16.12;57.97;96881.06;5012810;28;20390;-31
2022/12/23 11:33:47;;;;;;;4.88;3.47;;;;;;;16.05;58.28;96876.63;5012395;28;20382;-31
2022/12/23 11:36:12;;;;;;;5.85;3.63;;;;;;;16.08;57.88;96870.25;5012341;28;20051;-31
2022/12/23 11:38:50;;;;;;;7.03;3.78;;;;;;;15.97;58.40;96855.47;5012877;28;20030;-31
2022/12/23 11:41:41;;;;;;;7.07;2.83;;;;;;;16.13;57.72;96866.94;4995013;28;20022;-31
2022/12/23 11:44:11;;;;;;;6.13;3.10;;;;;;;16.19;57.55;96860.88;5007799;28;20060;-31
2022/12/23 11:46:36;;;;;;;5.28;3.17;;;;;;;16.17;57.51;96848.41;5012549;28;20022;-31
2022/12/23 11:49:15;;;;;;;4.22;2.80;;;;;;;16.02;58.08;96854.88;5012501;28;20083;-31
2022/12/23 11:51:46;;;;;;;7.18;2.78;;;;;;;15.71;58.29;96841.25;5012588;28;20014;-31
2022/12/23 11:54:19;;;;;;;8.18;3.22;;;;;;;15.94;58.15;96853.66;5010969;28;20154;-31
2022/12/23 11:56:50;;;;;;;6.88;3.00;;;;;;;16.16;57.68;96848.84;5012165;28;20069;-31
2022/12/23 11:59:28;;;;;;;4.72;2.60;;;;;;;16.21;57.53;96848.22;5012059;28;20125;-31
2022/12/23 12:01:56;;;;;;;6.60;3.03;;;;;;;16.24;57.37;96865.72;5012050;28;20034;-30
2022/12/23 12:04:24;;;;;;;4.80;2.40;;;;;;;16.07;57.58;96859.78;5012303;28;20029;-30
2022/12/23 12:06:51;;;;;;;5.75;2.60;;;;;;;16.06;58.06;96861.00;5012251;28;20493;-30
2022/12/23 12:09:17;;;;;;;7.07;2.88;;;;;;;16.15;57.66;96869.22;5011914;28;20030;-30